Time;durP1;ratioP1;P1;durP2;ratioP2;P2;SDS_P1;SDS_P2;PMS_P1;PMS_P2;Temp;Humidity;BMP_temperature;BMP_pressure;BME280_temperature;BME280_humidity;BME280_pressure;Samples;Min_cycle;Max_cycle;Signal;HPM_P1;HPM_P2
2022/03/02 00:00:57;;;;;;;;;;;;;;;-144.99;100.00;61100.13;5053799;28;19970;-57
2022/03/02 00:03:25;;;;;;;;;;;;;;;-144.99;100.00;61100.13;5081468;28;19987;-56
2022/03/02 00:05:51;;;;;;;;;;;;;;;-144.99;100.00;61100.13;5067218;28;19989;-58
2022/03/02 00:08:17;;;;;;;;;;;;;;;-144.99;100.00;61100.13;5078041;28;19970;-57
2022/03/02 00:10:44;;;;;;;;;;;;;;;-144.99;100.00;61100.13;5049473;28;20016;-57
2022/03/02 00:13:10;;;;;;;;;;;;;;;-144.99;100.00;61100.13;5049369;28;20021;-60
2022/03/02 00:15:36;;;;;;;;;;;;;;;-144.99;100.00;61100.13;5051367;28;19981;-60
2022/03/02 00:18:03;;;;;;;;;;;;;;;-144.99;100.00;61100.13;5070728;28;20076;-60
2022/03/02 00:20:30;;;;;;;;;;;;;;;-144.99;100.00;61100.13;5049325;28;19994;-59
2022/03/02 00:22:57;;;;;;;;;;;;;;;-144.99;100.00;61100.13;5048323;28;20089;-60
2022/03/02 00:25:23;;;;;;;;;;;;;;;-144.99;100.00;61100.13;5076698;22;19998;-77
2022/03/02 00:27:50;;;;;;;;;;;;;;;-144.99;100.00;61100.13;5093619;28;20367;-79
2022/03/02 00:30:16;;;;;;;;;;;;;;;-144.99;100.00;61100.13;5078513;28;20006;-79
2022/03/02 00:32:43;;;;;;;;;;;;;;;-144.99;100.00;61100.13;5088488;28;20031;-79
2022/03/02 00:35:09;;;;;;;;;;;;;;;-144.99;100.00;61100.13;5081126;28;19982;-77
2022/03/02 00:37:37;;;;;;;;;;;;;;;-144.99;100.00;61100.13;5085132;28;20349;-76
2022/03/02 00:40:04;;;;;;;;;;;;;;;-144.99;100.00;61100.13;5081557;28;20015;-77
2022/03/02 00:42:31;;;;;;;;;;;;;;;-144.99;100.00;61100.13;5076599;28;19982;-77
2022/03/02 00:44:57;;;;;;;;;;;;;;;-144.99;100.00;61100.13;5092665;28;20232;-77
2022/03/02 00:47:24;;;;;;;;;;;;;;;-144.99;100.00;61100.13;5076326;28;20340;-78
2022/03/02 00:49:50;;;;;;;;;;;;;;;-144.99;100.00;61100.13;5089138;28;19985;-77
2022/03/02 00:52:17;;;;;;;;;;;;;;;-144.99;100.00;61100.13;5074652;28;19983;-77
2022/03/02 00:54:45;;;;;;;;;;;;;;;-144.99;100.00;61100.13;5071916;28;19980;-76
2022/03/02 00:57:11;;;;;;;;;;;;;;;-144.99;100.00;61100.13;5077481;28;19997;-76
2022/03/02 00:59:38;;;;;;;;;;;;;;;-144.99;100.00;61100.13;5079867;28;19986;-77
2022/03/02 01:02:04;;;;;;;;;;;;;;;-144.99;100.00;61100.13;5079967;28;20481;-78
2022/03/02 01:04:31;;;;;;;;;;;;;;;-144.99;100.00;61100.13;5082520;28;19989;-78
2022/03/02 01:06:57;;;;;;;;;;;;;;;-144.99;100.00;61100.13;5074651;28;19993;-79
2022/03/02 01:09:26;;;;;;;;;;;;;;;-144.99;100.00;61100.13;5071532;28;19975;-78
2022/03/02 01:12:07;;;;;;;;;;;;;;;-144.99;100.00;61100.13;5073496;28;19989;-76
2022/03/02 01:14:33;;;;;;;;;;;;;;;-144.99;100.00;61100.13;5076148;28;20078;-76
2022/03/02 01:16:59;;;;;;;;;;;;;;;-144.99;100.00;61100.13;5076476;28;19971;-77
2022/03/02 01:19:26;;;;;;;;;;;;;;;-144.99;100.00;61100.13;5071487;28;19982;-76
2022/03/02 01:21:52;;;;;;;;;;;;;;;-144.99;100.00;61100.13;5072556;28;19986;-77
2022/03/02 01:24:18;;;;;;;;;;;;;;;-144.99;100.00;61100.13;5071658;28;19979;-77
2022/03/02 01:26:46;;;;;;;;;;;;;;;-144.99;100.00;61100.13;5091104;28;19998;-76
2022/03/02 01:29:14;;;;;;;;;;;;;;;-144.99;100.00;61100.13;5082022;28;20007;-76
2022/03/02 01:31:40;;;;;;;;;;;;;;;-144.99;100.00;61100.13;5082110;28;19975;-75
2022/03/02 01:34:06;;;;;;;;;;;;;;;-144.99;100.00;61100.13;5074881;28;19972;-76
2022/03/02 01:36:33;;;;;;;;;;;;;;;-144.99;100.00;61100.13;5077436;28;20004;-77
2022/03/02 01:38:59;;;;;;;;;;;;;;;-144.99;100.00;61100.13;5082699;28;19983;-78
2022/03/02 01:41:26;;;;;;;;;;;;;;;-144.99;100.00;61100.13;5096101;28;19988;-77
2022/03/02 01:43:53;;;;;;;;;;;;;;;-144.99;100.00;61100.13;5105825;28;19978;-79
2022/03/02 01:46:22;;;;;;;;;;;;;;;-144.99;100.00;61100.13;5106217;28;20005;-77
2022/03/02 01:48:49;;;;;;;;;;;;;;;-144.99;100.00;61100.13;5096355;28;20002;-79
2022/03/02 01:51:16;;;;;;;;;;;;;;;-144.99;100.00;61100.13;5097294;28;19983;-78
2022/03/02 01:53:43;;;;;;;;;;;;;;;-144.99;100.00;61100.13;5087247;28;19979;-77
2022/03/02 01:56:09;;;;;;;;;;;;;;;-144.99;100.00;61100.13;5086414;28;20209;-78
2022/03/02 01:58:36;;;;;;;;;;;;;;;-144.99;100.00;61100.13;5081309;28;20004;-78
2022/03/02 02:01:02;;;;;;;;;;;;;;;-144.99;100.00;61100.13;5082507;28;19974;-76
2022/03/02 02:03:30;;;;;;;;;;;;;;;-144.99;100.00;61100.13;5076828;28;20053;-77
2022/03/02 02:05:57;;;;;;;;;;;;;;;-144.99;100.00;61100.13;5082445;28;20007;-78
2022/03/02 02:08:23;;;;;;;;;;;;;;;-144.99;100.00;61100.13;5082043;28;19978;-78
2022/03/02 02:10:50;;;;;;;;;;;;;;;-144.99;100.00;61100.13;5091060;28;19978;-78
2022/03/02 02:13:16;;;;;;;;;;;;;;;-144.99;100.00;61100.13;5076610;28;20014;-79
2022/03/02 02:15:42;;;;;;;;;;;;;;;-144.99;100.00;61100.13;5074979;28;19995;-75
2022/03/02 02:18:09;;;;;;;;;;;;;;;-144.99;100.00;61100.13;5078598;28;19979;-76
2022/03/02 02:20:37;;;;;;;;;;;;;;;-144.99;100.00;61100.13;5086064;28;19974;-77
2022/03/02 02:23:04;;;;;;;;;;;;;;;-144.99;100.00;61100.13;5075451;28;20029;-78
2022/03/02 02:25:30;;;;;;;;;;;;;;;-144.99;100.00;61100.13;5082630;28;19994;-78
2022/03/02 02:27:56;;;;;;;;;;;;;;;-144.99;100.00;61100.13;5080301;28;19978;-79
2022/03/02 02:30:24;;;;;;;;;;;;;;;-144.99;100.00;61100.13;5072437;28;19978;-79
2022/03/02 02:32:50;;;;;;;;;;;;;;;-144.99;100.00;61100.13;5073244;28;19982;-79
2022/03/02 02:35:16;;;;;;;;;;;;;;;-144.99;100.00;61100.13;5082522;28;19990;-78
2022/03/02 02:37:44;;;;;;;;;;;;;;;-144.99;100.00;61100.13;5073062;28;19987;-79
2022/03/02 02:40:11;;;;;;;;;;;;;;;-144.99;100.00;61100.13;5072434;28;19979;-78
2022/03/02 02:42:37;;;;;;;;;;;;;;;-144.99;100.00;61100.13;5077372;28;19982;-79
2022/03/02 02:45:04;;;;;;;;;;;;;;;-144.99;100.00;61100.13;5082024;28;20361;-76
2022/03/02 02:47:30;;;;;;;;;;;;;;;-144.99;100.00;61100.13;5073339;28;19928;-78
2022/03/02 02:49:57;;;;;;;;;;;;;;;-144.99;100.00;61100.13;5078541;28;19983;-80
2022/03/02 02:52:23;;;;;;;;;;;;;;;-144.99;100.00;61100.13;5080817;28;19976;-79
2022/03/02 02:54:51;;;;;;;;;;;;;;;-144.99;100.00;61100.13;5081419;28;19975;-79
2022/03/02 02:57:17;;;;;;;;;;;;;;;-144.99;100.00;61100.13;5081824;28;19971;-80
2022/03/02 02:59:44;;;;;;;;;;;;;;;-144.99;100.00;61100.13;5084382;28;19970;-78
2022/03/02 03:02:10;;;;;;;;;;;;;;;-144.99;100.00;61100.13;5076804;28;19982;-77
2022/03/02 03:04:37;;;;;;;;;;;;;;;-144.99;100.00;61100.13;5084309;28;20376;-77
2022/03/02 03:07:03;;;;;;;;;;;;;;;-144.99;100.00;61100.13;5079529;28;20000;-77
2022/03/02 03:09:29;;;;;;;;;;;;;;;-144.99;100.00;61100.13;5074506;28;19984;-78
2022/03/02 03:11:57;;;;;;;;;;;;;;;-144.99;100.00;61100.13;5081558;28;19978;-78
2022/03/02 03:14:23;;;;;;;;;;;;;;;-144.99;100.00;61100.13;5078873;28;19971;-79
2022/03/02 03:16:50;;;;;;;;;;;;;;;-144.99;100.00;61100.13;5080132;28;19990;-78
2022/03/02 03:19:17;;;;;;;;;;;;;;;-144.99;100.00;61100.13;5075171;28;19970;-78
2022/03/02 03:21:43;;;;;;;;;;;;;;;-144.99;100.00;61100.13;5080593;28;19976;-76
2022/03/02 03:24:09;;;;;;;;;;;;;;;-144.99;100.00;61100.13;5069821;28;19999;-78
2022/03/02 03:26:36;;;;;;;;;;;;;;;-144.99;100.00;61100.13;5079406;28;20005;-77
2022/03/02 03:29:03;;;;;;;;;;;;;;;-144.99;100.00;61100.13;5083024;28;19989;-77
2022/03/02 03:31:29;;;;;;;;;;;;;;;-144.99;100.00;61100.13;5073527;28;20076;-77
2022/03/02 03:33:56;;;;;;;;;;;;;;;-144.99;100.00;61100.13;5070741;28;19972;-78
2022/03/02 03:36:22;;;;;;;;;;;;;;;-144.99;100.00;61100.13;5079256;28;20396;-78
2022/03/02 03:38:48;;;;;;;;;;;;;;;-144.99;100.00;61100.13;5068501;28;19983;-78
2022/03/02 03:41:15;;;;;;;;;;;;;;;-144.99;100.00;61100.13;5090627;28;20067;-78
2022/03/02 03:43:41;;;;;;;;;;;;;;;-144.99;100.00;61100.13;5090941;28;19979;-78
2022/03/02 03:46:09;;;;;;;;;;;;;;;-144.99;100.00;61100.13;5076651;28;19991;-78
2022/03/02 03:48:35;;;;;;;;;;;;;;;-144.99;100.00;61100.13;5075826;28;20350;-77
2022/03/02 03:51:02;;;;;;;;;;;;;;;-144.99;100.00;61100.13;5080156;28;19978;-77
2022/03/02 03:53:28;;;;;;;;;;;;;;;-144.99;100.00;61100.13;5068190;28;19979;-78
2022/03/02 03:55:54;;;;;;;;;;;;;;;-144.99;100.00;61100.13;5077082;28;20257;-77
2022/03/02 03:58:21;;;;;;;;;;;;;;;-144.99;100.00;61100.13;5084223;28;19974;-78
2022/03/02 04:00:47;;;;;;;;;;;;;;;-144.99;100.00;61100.13;5070565;28;20453;-75
2022/03/02 04:03:15;;;;;;;;;;;;;;;-144.99;100.00;61100.13;5068928;28;19980;-76
2022/03/02 04:05:41;;;;;;;;;;;;;;;-144.99;100.00;61100.13;5074742;28;19992;-76
2022/03/02 04:08:08;;;;;;;;;;;;;;;-144.99;100.00;61100.13;5085121;28;19975;-74
2022/03/02 04:10:35;;;;;;;;;;;;;;;-144.99;100.00;61100.13;5069154;28;20415;-75
2022/03/02 04:13:01;;;;;;;;;;;;;;;-144.99;100.00;61100.13;5070388;28;19984;-76
2022/03/02 04:15:27;;;;;;;;;;;;;;;-144.99;100.00;61100.13;5085996;28;19998;-77
2022/03/02 04:17:54;;;;;;;;;;;;;;;-144.99;100.00;61100.13;5081422;28;19984;-76
2022/03/02 04:20:22;;;;;;;;;;;;;;;-144.99;100.00;61100.13;5075645;28;19979;-76
2022/03/02 04:22:48;;;;;;;;;;;;;;;-144.99;100.00;61100.13;5072515;28;19980;-77
2022/03/02 04:25:14;;;;;;;;;;;;;;;-144.99;100.00;61100.13;5087276;28;19995;-77
2022/03/02 04:27:41;;;;;;;;;;;;;;;-144.99;100.00;61100.13;5074459;28;19988;-78
2022/03/02 04:30:08;;;;;;;;;;;;;;;-144.99;100.00;61100.13;5079293;28;20019;-78
2022/03/02 04:32:35;;;;;;;;;;;;;;;-144.99;100.00;61100.13;5089261;28;20502;-78
2022/03/02 04:35:01;;;;;;;;;;;;;;;-144.99;100.00;61100.13;5081285;28;19977;-78
2022/03/02 04:37:29;;;;;;;;;;;;;;;-144.99;100.00;61100.13;5077144;28;19982;-79
2022/03/02 04:39:55;;;;;;;;;;;;;;;-144.99;100.00;61100.13;5069830;28;19982;-79
2022/03/02 04:42:21;;;;;;;;;;;;;;;-144.99;100.00;61100.13;5069629;28;20458;-75
2022/03/02 04:44:48;;;;;;;;;;;;;;;-144.99;100.00;61100.13;5068662;28;20340;-76
2022/03/02 04:47:14;;;;;;;;;;;;;;;-144.99;100.00;61100.13;5075192;28;19999;-77
2022/03/02 04:49:40;;;;;;;;;;;;;;;-144.99;100.00;61100.13;5074396;28;19980;-76
2022/03/02 04:52:07;;;;;;;;;;;;;;;-144.99;100.00;61100.13;5081213;28;19982;-77
2022/03/02 04:57:19;;;;;;;;;;;;;;;-144.99;100.00;61100.13;5083209;28;19982;-78
2022/03/02 04:59:45;;;;;;;;;;;;;;;-144.99;100.00;61100.13;5093999;28;19982;-79
2022/03/02 05:02:12;;;;;;;;;;;;;;;-144.99;100.00;61100.13;5090405;28;19984;-79
2022/03/02 05:04:38;;;;;;;;;;;;;;;-144.99;100.00;61100.13;5088278;28;20007;-77
2022/03/02 05:07:05;;;;;;;;;;;;;;;-144.99;100.00;61100.13;5094128;28;19990;-76
2022/03/02 05:09:31;;;;;;;;;;;;;;;-144.99;100.00;61100.13;5084516;28;19989;-77
2022/03/02 05:11:58;;;;;;;;;;;;;;;-144.99;100.00;61100.13;5073596;28;19983;-77
2022/03/02 05:14:25;;;;;;;;;;;;;;;-144.99;100.00;61100.13;5068120;28;20062;-76
2022/03/02 05:16:51;;;;;;;;;;;;;;;-144.99;100.00;61100.13;5075606;28;20019;-76
2022/03/02 05:19:17;;;;;;;;;;;;;;;-144.99;100.00;61100.13;5077104;28;19975;-76
2022/03/02 05:21:44;;;;;;;;;;;;;;;-144.99;100.00;61100.13;5079106;28;20037;-76
2022/03/02 05:24:12;;;;;;;;;;;;;;;-144.99;100.00;61100.13;5067473;28;19976;-76
2022/03/02 05:26:38;;;;;;;;;;;;;;;-144.99;100.00;61100.13;5068661;28;20018;-75
2022/03/02 05:29:06;;;;;;;;;;;;;;;-144.99;100.00;61100.13;5071673;28;19974;-76
2022/03/02 05:31:32;;;;;;;;;;;;;;;-144.99;100.00;61100.13;5076892;28;19984;-76
2022/03/02 05:33:59;;;;;;;;;;;;;;;-144.99;100.00;61100.13;5068193;28;20443;-75
2022/03/02 05:36:26;;;;;;;;;;;;;;;-144.99;100.00;61100.13;5077612;28;19995;-75
2022/03/02 05:38:52;;;;;;;;;;;;;;;-144.99;100.00;61100.13;5077206;28;19983;-75
2022/03/02 05:41:19;;;;;;;;;;;;;;;-144.99;100.00;61100.13;5075952;28;20033;-76
2022/03/02 05:43:45;;;;;;;;;;;;;;;-144.99;100.00;61100.13;5087654;28;19984;-76
2022/03/02 05:46:13;;;;;;;;;;;;;;;-144.99;100.00;61100.13;5086369;28;20261;-76
2022/03/02 05:48:39;;;;;;;;;;;;;;;-144.99;100.00;61100.13;5073368;28;19978;-76
2022/03/02 05:51:06;;;;;;;;;;;;;;;-144.99;100.00;61100.13;5076430;28;19995;-78
2022/03/02 05:53:32;;;;;;;;;;;;;;;-144.99;100.00;61100.13;5072253;28;19985;-76
2022/03/02 05:55:59;;;;;;;;;;;;;;;-144.99;100.00;61100.13;5070448;28;19998;-75
2022/03/02 05:58:25;;;;;;;;;;;;;;;-144.99;100.00;61100.13;5071099;28;19980;-75
2022/03/02 06:00:52;;;;;;;;;;;;;;;-144.99;100.00;61100.13;5068104;28;19983;-76
2022/03/02 06:03:20;;;;;;;;;;;;;;;-144.99;100.00;61100.13;5081582;28;19986;-74
2022/03/02 06:05:48;;;;;;;;;;;;;;;-144.99;100.00;61100.13;5075891;28;20388;-74
2022/03/02 06:08:14;;;;;;;;;;;;;;;-144.99;100.00;61100.13;4368673;28;10000749;-75
2022/03/02 06:10:40;;;;;;;;;;;;;;;-144.99;100.00;61100.13;5065138;28;19983;-76
2022/03/02 06:13:07;;;;;;;;;;;;;;;-144.99;100.00;61100.13;5065516;28;19979;-76
2022/03/02 06:15:34;;;;;;;;;;;;;;;-144.99;100.00;61100.13;5064600;28;20003;-75
2022/03/02 06:18:03;;;;;;;;;;;;;;;-144.99;100.00;61100.13;5067930;28;20068;-75
2022/03/02 06:20:31;;;;;;;;;;;;;;;-144.99;100.00;61100.13;5070645;28;20902;-76
2022/03/02 06:22:58;;;;;;;;;;;;;;;-144.99;100.00;61100.13;5065369;28;19984;-75
2022/03/02 06:25:27;;;;;;;;;;;;;;;-144.99;100.00;61100.13;5070071;28;20463;-74
2022/03/02 06:27:53;;;;;;;;;;;;;;;-144.99;100.00;61100.13;5090611;22;20004;-72
2022/03/02 06:30:19;;;;;;;;;;;;;;;-144.99;100.00;61100.13;5060095;28;20431;-74
2022/03/02 06:32:46;;;;;;;;;;;;;;;-144.99;100.00;61100.13;5057536;28;19980;-72
2022/03/02 06:35:13;;;;;;;;;;;;;;;-144.99;100.00;61100.13;5067591;28;19973;-74
2022/03/02 06:37:40;;;;;;;;;;;;;;;-144.99;100.00;61100.13;5062371;28;20505;-73
2022/03/02 06:40:08;;;;;;;;;;;;;;;-144.99;100.00;61100.13;5071381;28;19987;-73
2022/03/02 06:42:40;;;;;;;;;;;;;;;-144.99;100.00;61100.13;5067070;28;19975;-72
2022/03/02 06:45:11;;;;;;;;;;;;;;;-144.99;100.00;61100.13;5059508;28;19976;-73
2022/03/02 06:47:41;;;;;;;;;;;;;;;-144.99;100.00;61100.13;5070290;28;20004;-72
2022/03/02 06:50:08;;;;;;;;;;;;;;;-144.99;100.00;61100.13;5068033;28;19980;-75
2022/03/02 06:52:35;;;;;;;;;;;;;;;-144.99;100.00;61100.13;5080337;28;20512;-73
2022/03/02 06:55:05;;;;;;;;;;;;;;;-144.99;100.00;61100.13;5076111;28;19977;-73
2022/03/02 06:57:31;;;;;;;;;;;;;;;-144.99;100.00;61100.13;5055763;28;19996;-75
2022/03/02 07:00:00;;;;;;;;;;;;;;;-144.99;100.00;61100.13;5069273;28;19985;-75
2022/03/02 07:02:33;;;;;;;;;;;;;;;-144.99;100.00;61100.13;5063176;28;19972;-74
2022/03/02 07:05:00;;;;;;;;;;;;;;;-144.99;100.00;61100.13;5076385;28;20455;-74
2022/03/02 07:07:26;;;;;;;;;;;;;;;-144.99;100.00;61100.13;5069111;28;20351;-72
2022/03/02 07:09:53;;;;;;;;;;;;;;;-144.99;100.00;61100.13;5079680;28;20022;-75
2022/03/02 07:12:21;;;;;;;;;;;;;;;-144.99;100.00;61100.13;5067637;28;20037;-73
2022/03/02 07:14:48;;;;;;;;;;;;;;;-144.99;100.00;61100.13;5076393;28;19982;-71
2022/03/02 07:17:15;;;;;;;;;;;;;;;-144.99;100.00;61100.13;5066530;28;20448;-72
2022/03/02 07:19:41;;;;;;;;;;;;;;;-144.99;100.00;61100.13;5065513;28;20019;-74
2022/03/02 07:22:08;;;;;;;;;;;;;;;-144.99;100.00;61100.13;5081391;28;19988;-73
2022/03/02 07:24:37;;;;;;;;;;;;;;;-144.99;100.00;61100.13;5084066;28;19982;-74
2022/03/02 07:27:04;;;;;;;;;;;;;;;-144.99;100.00;61100.13;5068514;28;20001;-74
2022/03/02 07:29:34;;;;;;;;;;;;;;;-144.99;100.00;61100.13;5062004;28;19982;-73
2022/03/02 07:32:02;;;;;;;;;;;;;;;-144.99;100.00;61100.13;5066845;28;20151;-72
2022/03/02 07:34:31;;;;;;;;;;;;;;;-144.99;100.00;61100.13;5064254;28;19966;-74
2022/03/02 07:36:58;;;;;;;;;;;;;;;-144.99;100.00;61100.13;5066443;28;19997;-73
2022/03/02 07:39:24;;;;;;;;;;;;;;;-144.99;100.00;61100.13;5070742;28;19964;-72
2022/03/02 07:41:51;;;;;;;;;;;;;;;-144.99;100.00;61100.13;5066744;28;19976;-72
2022/03/02 07:44:17;;;;;;;;;;;;;;;-144.99;100.00;61100.13;5074311;28;20048;-73
2022/03/02 07:46:45;;;;;;;;;;;;;;;-144.99;100.00;61100.13;5068011;28;19971;-73
2022/03/02 07:49:12;;;;;;;;;;;;;;;-144.99;100.00;61100.13;5074949;28;19971;-71
2022/03/02 07:51:39;;;;;;;;;;;;;;;-144.99;100.00;61100.13;5076536;28;20340;-71
2022/03/02 07:54:06;;;;;;;;;;;;;;;-144.99;100.00;61100.13;5066701;28;19973;-73
2022/03/02 07:56:33;;;;;;;;;;;;;;;-144.99;100.00;61100.13;5073626;28;19977;-72
2022/03/02 07:59:01;;;;;;;;;;;;;;;-144.99;100.00;61100.13;5077573;28;19978;-72
2022/03/02 08:01:27;;;;;;;;;;;;;;;-144.99;100.00;61100.13;5069650;28;19975;-72
2022/03/02 08:03:58;;;;;;;;;;;;;;;-144.99;100.00;61100.13;5064391;28;19978;-72
2022/03/02 08:06:24;;;;;;;;;;;;;;;-144.99;100.00;61100.13;5071051;28;19958;-73
2022/03/02 08:08:51;;;;;;;;;;;;;;;-144.99;100.00;61100.13;5064845;28;20048;-72
2022/03/02 08:11:17;;;;;;;;;;;;;;;-144.99;100.00;61100.13;5068813;28;20012;-73
2022/03/02 08:13:44;;;;;;;;;;;;;;;-144.99;100.00;61100.13;5066023;28;19960;-72
2022/03/02 08:16:11;;;;;;;;;;;;;;;-144.99;100.00;61100.13;5067153;28;20074;-73
2022/03/02 08:18:37;;;;;;;;;;;;;;;-144.99;100.00;61100.13;5058716;28;19980;-72
2022/03/02 08:21:05;;;;;;;;;;;;;;;-144.99;100.00;61100.13;5064006;28;19964;-73
2022/03/02 08:23:36;;;;;;;;;;;;;;;-144.99;100.00;61100.13;5084585;28;19966;-73
2022/03/02 08:26:03;;;;;;;;;;;;;;;-144.99;100.00;61100.13;5070113;28;19957;-75
2022/03/02 08:28:32;;;;;;;;;;;;;;;-144.99;100.00;61100.13;5073152;28;20339;-73
2022/03/02 08:30:58;;;;;;;;;;;;;;;-144.99;100.00;61100.13;5068384;28;19966;-74
2022/03/02 08:33:29;;;;;;;;;;;;;;;-144.99;100.00;61100.13;5067088;28;19952;-75
2022/03/02 08:35:56;;;;;;;;;;;;;;;-144.99;100.00;61100.13;5067127;28;19929;-75
2022/03/02 08:38:24;;;;;;;;;;;;;;;-144.99;100.00;61100.13;5066902;28;19981;-74
2022/03/02 08:40:50;;;;;;;;;;;;;;;-144.99;100.00;61100.13;5068587;28;19953;-73
2022/03/02 08:43:17;;;;;;;;;;;;;;;-144.99;100.00;61100.13;5067400;28;19928;-72
2022/03/02 08:45:45;;;;;;;;;;;;;;;-144.99;100.00;61100.13;5072155;28;19947;-72
2022/03/02 08:48:13;;;;;;;;;;;;;;;-144.99;100.00;61100.13;5070781;28;19965;-73
2022/03/02 08:50:40;;;;;;;;;;;;;;;-144.99;100.00;61100.13;5071447;28;19947;-74
2022/03/02 08:53:07;;;;;;;;;;;;;;;-144.99;100.00;61100.13;5072741;28;19963;-72
2022/03/02 08:55:35;;;;;;;;;;;;;;;-144.99;100.00;61100.13;5068619;28;19983;-74
2022/03/02 08:58:02;;;;;;;;;;;;;;;-144.99;100.00;61100.13;5079606;28;19965;-74
2022/03/02 09:00:29;;;;;;;;;;;;;;;-144.99;100.00;61100.13;5072652;28;20003;-73
2022/03/02 09:02:56;;;;;;;;;;;;;;;-144.99;100.00;61100.13;5077162;28;19966;-73
2022/03/02 09:05:26;;;;;;;;;;;;;;;-144.99;100.00;61100.13;5074213;28;20429;-74
2022/03/02 09:07:53;;;;;;;;;;;;;;;-144.99;100.00;61100.13;5076263;28;19966;-75
2022/03/02 09:10:19;;;;;;;;;;;;;;;-144.99;100.00;61100.13;5075990;28;19966;-73
2022/03/02 09:12:47;;;;;;;;;;;;;;;-144.99;100.00;61100.13;5074303;28;19940;-72
2022/03/02 09:15:13;;;;;;;;;;;;;;;-144.99;100.00;61100.13;5068817;28;19929;-73
2022/03/02 09:17:40;;;;;;;;;;;;;;;-144.99;100.00;61100.13;5063262;28;19931;-74
2022/03/02 09:20:07;;;;;;;;;;;;;;;-144.99;100.00;61100.13;5068013;28;19937;-73
2022/03/02 09:22:36;;;;;;;;;;;;;;;-144.99;100.00;61100.13;5058281;28;20220;-74
2022/03/02 09:25:03;;;;;;;;;;;;;;;-144.99;100.00;61100.13;5062963;28;20382;-72
2022/03/02 09:27:30;;;;;;;;;;;;;;;-144.99;100.00;61100.13;5065020;28;20323;-76
2022/03/02 09:29:59;;;;;;;;;;;;;;;-144.99;100.00;61100.13;5065087;28;19924;-74
2022/03/02 09:32:26;;;;;;;;;;;;;;;-144.99;100.00;61100.13;5063395;28;19932;-73
2022/03/02 09:34:54;;;;;;;;;;;;;;;-144.99;100.00;61100.13;5061578;28;20127;-75
2022/03/02 09:37:23;;;;;;;;;;;;;;;-144.99;100.00;61100.13;5063090;28;20399;-73
2022/03/02 09:39:53;;;;;;;;;;;;;;;-144.99;100.00;61100.13;5064762;28;19928;-74
2022/03/02 09:42:25;;;;;;;;;;;;;;;-144.99;100.00;61100.13;5065081;28;20910;-73
2022/03/02 09:44:53;;;;;;;;;;;;;;;-144.99;100.00;61100.13;5054983;28;19982;-75
2022/03/02 09:47:24;;;;;;;;;;;;;;;-144.99;100.00;61100.13;5057437;28;19951;-74
2022/03/02 09:49:53;;;;;;;;;;;;;;;-144.99;100.00;61100.13;5051234;28;19928;-73
2022/03/02 09:52:23;;;;;;;;;;;;;;;-144.99;100.00;61100.13;5060839;28;19971;-73
2022/03/02 09:54:52;;;;;;;;;;;;;;;-144.99;100.00;61100.13;5065760;28;19933;-72
2022/03/02 09:57:19;;;;;;;;;;;;;;;-144.99;100.00;61100.13;5061756;28;20465;-73
2022/03/02 09:59:49;;;;;;;;;;;;;;;-144.99;100.00;61100.13;5084277;28;20011;-75
2022/03/02 10:02:25;;;;;;;;;;;;;;;-144.99;100.00;61100.13;5067655;28;19951;-74
2022/03/02 10:04:54;;;;;;;;;;;;;;;-144.99;100.00;61100.13;5065702;28;20276;-74
2022/03/02 10:07:29;;;;;;;;;;;;;;;-144.99;100.00;61100.13;5061841;28;19981;-73
2022/03/02 10:09:59;;;;;;;;;;;;;;;-144.99;100.00;61100.13;5062751;28;20202;-74
2022/03/02 10:12:26;;;;;;;;;;;;;;;-144.99;100.00;61100.13;5062075;28;19936;-76
2022/03/02 10:14:53;;;;;;;;;;;;;;;-144.99;100.00;61100.13;5076063;28;20027;-73
2022/03/02 10:17:20;;;;;;;;;;;;;;;-144.99;100.00;61100.13;5073902;28;19958;-74
2022/03/02 10:19:51;;;;;;;;;;;;;;;-144.99;100.00;61100.13;5065377;28;20363;-74
2022/03/02 10:22:24;;;;;;;;;;;;;;;-144.99;100.00;61100.13;5074646;28;19951;-73
2022/03/02 10:24:59;;;;;;;;;;;;;;;-144.99;100.00;61100.13;5070768;28;20357;-74
2022/03/02 10:27:33;;;;;;;;;;;;;;;-144.99;100.00;61100.13;5062914;28;20338;-72
2022/03/02 10:30:03;;;;;;;;;;;;;;;-144.99;100.00;61100.13;5068444;28;19936;-74
2022/03/02 10:32:33;;;;;;;;;;;;;;;-144.99;100.00;61100.13;5066500;28;19943;-74
2022/03/02 10:35:03;;;;;;;;;;;;;;;-144.99;100.00;61100.13;5066173;28;19960;-73
2022/03/02 10:37:33;;;;;;;;;;;;;;;-144.99;100.00;61100.13;5064436;28;20172;-75
2022/03/02 10:40:09;;;;;;;;;;;;;;;-144.99;100.00;61100.13;5067207;28;20015;-73
2022/03/02 10:42:37;;;;;;;;;;;;;;;-144.99;100.00;61100.13;5067110;28;20033;-74
2022/03/02 10:45:06;;;;;;;;;;;;;;;-144.99;100.00;61100.13;5067349;28;20300;-74
2022/03/02 10:47:33;;;;;;;;;;;;;;;-144.99;100.00;61100.13;5065412;28;20367;-75
2022/03/02 10:50:01;;;;;;;;;;;;;;;-144.99;100.00;61100.13;5074063;28;19928;-75
2022/03/02 10:52:28;;;;;;;;;;;;;;;-144.99;100.00;61100.13;5068307;28;20513;-72
2022/03/02 10:54:56;;;;;;;;;;;;;;;-144.99;100.00;61100.13;5074263;28;20122;-73
2022/03/02 10:57:25;;;;;;;;;;;;;;;-144.99;100.00;61100.13;5068133;28;20179;-73
2022/03/02 10:59:52;;;;;;;;;;;;;;;-144.99;100.00;61100.13;5053292;28;20472;-75
2022/03/02 11:03:18;;;;;;;;;;;;;;;-144.99;100.00;61100.13;5065572;28;19925;-75
2022/03/02 11:06:44;;;;;;;;;;;;;;;-144.99;100.00;61100.13;5065200;28;19935;-74
2022/03/02 11:09:11;;;;;;;;;;;;;;;-144.99;100.00;61100.13;5061963;28;20308;-76
2022/03/02 11:11:38;;;;;;;;;;;;;;;-144.99;100.00;61100.13;5065551;28;19924;-76
2022/03/02 11:14:05;;;;;;;;;;;;;;;-144.99;100.00;61100.13;5065327;28;20083;-76
2022/03/02 11:16:31;;;;;;;;;;;;;;;-144.99;100.00;61100.13;5064014;28;19928;-75
2022/03/02 11:19:09;;;;;;;;;;;;;;;-144.99;100.00;61100.13;5063823;28;20421;-74
2022/03/02 11:21:37;;;;;;;;;;;;;;;-144.99;100.00;61100.13;5065193;28;19933;-76
2022/03/02 11:24:05;;;;;;;;;;;;;;;-144.99;100.00;61100.13;5070871;28;20315;-74
2022/03/02 11:26:34;;;;;;;;;;;;;;;-144.99;100.00;61100.13;5064547;28;20376;-75
2022/03/02 11:29:03;;;;;;;;;;;;;;;-144.99;100.00;61100.13;5063368;28;19929;-73
2022/03/02 11:31:31;;;;;;;;;;;;;;;-144.99;100.00;61100.13;5069622;28;20255;-76
2022/03/02 11:34:09;;;;;;;;;;;;;;;-144.99;100.00;61100.13;5065602;28;20543;-74
2022/03/02 11:36:36;;;;;;;;;;;;;;;-144.99;100.00;61100.13;5063341;28;20452;-73
2022/03/02 11:39:03;;;;;;;;;;;;;;;-144.99;100.00;61100.13;5062204;28;19928;-75
2022/03/02 11:42:29;;;;;;;;;;;;;;;-144.99;100.00;61100.13;5067099;28;19932;-76
2022/03/02 11:44:57;;;;;;;;;;;;;;;-144.99;100.00;61100.13;5062461;28;20315;-75
2022/03/02 11:47:25;;;;;;;;;;;;;;;-144.99;100.00;61100.13;5064078;28;19925;-76
2022/03/02 11:49:53;;;;;;;;;;;;;;;-144.99;100.00;61100.13;5065387;28;19972;-75
2022/03/02 11:52:20;;;;;;;;;;;;;;;-144.99;100.00;61100.13;5065627;28;19928;-76
2022/03/02 11:54:47;;;;;;;;;;;;;;;-144.99;100.00;61100.13;5063541;28;20375;-74
2022/03/02 11:57:15;;;;;;;;;;;;;;;-144.99;100.00;61100.13;5060232;28;20276;-76
2022/03/02 11:59:42;;;;;;;;;;;;;;;-144.99;100.00;61100.13;5085304;28;19935;-76
2022/03/02 12:02:14;;;;;;;;;;;;;;;-144.99;100.00;61100.13;5079140;28;20411;-76
2022/03/02 12:04:41;;;;;;;;;;;;;;;-144.99;100.00;61100.13;4712091;28;10000400;-76
2022/03/02 12:07:08;;;;;;;;;;;;;;;-144.99;100.00;61100.13;5081157;28;19928;-73
2022/03/02 12:09:35;;;;;;;;;;;;;;;-144.99;100.00;61100.13;5083038;28;19928;-75
2022/03/02 12:12:15;;;;;;;;;;;;;;;-144.99;100.00;61100.13;5084584;28;19935;-74
2022/03/02 12:14:43;;;;;;;;;;;;;;;-144.99;100.00;61100.13;5077485;28;19924;-76
2022/03/02 12:17:18;;;;;;;;;;;;;;;-144.99;100.00;61100.13;5063226;28;19989;-75
2022/03/02 12:19:45;;;;;;;;;;;;;;;-144.99;100.00;61100.13;5063484;28;19958;-76
2022/03/02 12:22:13;;;;;;;;;;;;;;;-144.99;100.00;61100.13;5063766;28;20027;-75
2022/03/02 12:24:39;;;;;;;;;;;;;;;-144.99;100.00;61100.13;5072988;28;20002;-74